Time;durP1;ratioP1;P1;durP2;ratioP2;P2;SDS_P1;SDS_P2;PMS_P1;PMS_P2;Temp;Humidity;BMP_temperature;BMP_pressure;BME280_temperature;BME280_humidity;BME280_pressure;Samples;Min_cycle;Max_cycle;Signal;HPM_P1;HPM_P2
2021/07/19 00:00:55;;;;;;;;;;;18.90;99.90;;;;;;5049961;28;19917;-62
2021/07/19 00:03:21;;;;;;;;;;;18.90;99.90;;;;;;5050711;28;20595;-62
2021/07/19 00:05:46;;;;;;;;;;;18.80;99.90;;;;;;5050422;28;19963;-62
2021/07/19 00:08:12;;;;;;;;;;;18.80;99.90;;;;;;5047247;28;19943;-62
2021/07/19 00:10:38;;;;;;;;;;;18.80;99.90;;;;;;5050034;28;19913;-62
2021/07/19 00:13:04;;;;;;;;;;;18.80;99.90;;;;;;5049386;28;20019;-62
2021/07/19 00:15:30;;;;;;;;;;;18.70;99.90;;;;;;5049917;28;19967;-62
2021/07/19 00:17:56;;;;;;;;;;;18.70;99.90;;;;;;5049710;28;19952;-62
2021/07/19 00:20:23;;;;;;;;;;;18.60;99.90;;;;;;5050703;28;19920;-62
2021/07/19 00:22:48;;;;;;;;;;;18.70;99.90;;;;;;5050109;28;19909;-60
2021/07/19 00:25:15;;;;;;;;;;;18.70;99.90;;;;;;5049955;28;20356;-62
2021/07/19 00:27:41;;;;;;;;;;;18.70;99.90;;;;;;5049265;28;19917;-61
2021/07/19 00:30:07;;;;;;;;;;;18.70;99.90;;;;;;5049940;28;20008;-61
2021/07/19 00:32:33;;;;;;;;;;;18.60;99.90;;;;;;5052335;28;19948;-61
2021/07/19 00:34:58;;;;;;;;;;;18.60;99.90;;;;;;5069838;28;20026;-62
2021/07/19 00:37:23;;;;;;;;;;;18.60;1.00;;;;;;5069481;28;19947;-62
2021/07/19 00:39:49;;;;;;;;;;;18.50;1.00;;;;;;5065550;28;19909;-62
2021/07/19 00:42:15;;;;;;;;;;;18.50;1.00;;;;;;5045903;28;19935;-62
2021/07/19 00:44:40;;;;;;;;;;;18.50;1.00;;;;;;5030133;28;19909;-63
2021/07/19 00:47:06;;;;;;;;;;;18.50;1.00;;;;;;5030243;28;19921;-62
2021/07/19 00:49:32;;;;;;;;;;;18.50;1.00;;;;;;5029262;28;20378;-63
2021/07/19 00:51:58;;;;;;;;;;;18.40;1.00;;;;;;5030358;28;20271;-62
2021/07/19 00:54:24;;;;;;;;;;;18.40;1.00;;;;;;5030079;28;19939;-62
2021/07/19 00:56:51;;;;;;;;;;;18.40;1.00;;;;;;5030347;28;19915;-61
2021/07/19 00:59:18;;;;;;;;;;;18.30;1.00;;;;;;5028662;28;19914;-62
2021/07/19 01:01:45;;;;;;;;;;;18.30;1.00;;;;;;5036313;28;19912;-62
2021/07/19 01:04:12;;;;;;;;;;;18.20;1.00;;;;;;5049051;28;19913;-60
2021/07/19 01:06:38;;;;;;;;;;;18.20;1.00;;;;;;5049747;28;20293;-62
2021/07/19 01:09:05;;;;;;;;;;;18.20;1.00;;;;;;5048552;28;19909;-62
2021/07/19 01:11:31;;;;;;;;;;;18.10;1.00;;;;;;5049352;28;19956;-60
2021/07/19 01:13:57;;;;;;;;;;;18.10;1.00;;;;;;5048753;28;19989;-62
2021/07/19 01:16:23;;;;;;;;;;;18.10;1.00;;;;;;5049339;28;20376;-62
2021/07/19 01:18:48;;;;;;;;;;;18.00;1.00;;;;;;5048243;28;20459;-61
2021/07/19 01:21:16;;;;;;;;;;;18.00;1.00;;;;;;5049942;28;19912;-61
2021/07/19 01:23:57;;;;;;;;;;;18.00;1.00;;;;;;5048673;28;20385;-60
2021/07/19 01:26:28;;;;;;;;;;;18.00;1.00;;;;;;5049267;28;19909;-61
2021/07/19 01:28:54;;;;;;;;;;;17.90;1.00;;;;;;5047692;28;19912;-62
2021/07/19 01:31:30;;;;;;;;;;;17.90;1.00;;;;;;5048959;28;19962;-62
2021/07/19 01:34:04;;;;;;;;;;;18.00;1.00;;;;;;5061232;28;19958;-63
2021/07/19 01:36:31;;;;;;;;;;;17.90;1.00;;;;;;5069056;28;20265;-63
2021/07/19 01:38:56;;;;;;;;;;;17.90;1.00;;;;;;5068420;28;19944;-62
2021/07/19 01:41:23;;;;;;;;;;;17.90;1.00;;;;;;5069249;28;19955;-62
2021/07/19 01:43:48;;;;;;;;;;;17.80;1.00;;;;;;5067859;28;19965;-63
2021/07/19 01:46:14;;;;;;;;;;;17.80;1.00;;;;;;5068858;28;19917;-62
2021/07/19 01:48:40;;;;;;;;;;;17.70;1.00;;;;;;5067729;28;20328;-61
2021/07/19 01:51:06;;;;;;;;;;;17.70;1.00;;;;;;5068923;28;19912;-62
2021/07/19 01:53:32;;;;;;;;;;;17.60;1.00;;;;;;5068668;28;19908;-63
2021/07/19 01:55:58;;;;;;;;;;;17.60;1.00;;;;;;5068800;28;20332;-63
2021/07/19 01:58:24;;;;;;;;;;;17.60;1.00;;;;;;5067003;28;19915;-63
2021/07/19 02:00:49;;;;;;;;;;;17.50;1.00;;;;;;5068484;28;20347;-63
2021/07/19 02:03:15;;;;;;;;;;;17.50;1.00;;;;;;5068526;28;20301;-63
2021/07/19 02:05:41;;;;;;;;;;;17.50;1.00;;;;;;5043116;28;19908;-63
2021/07/19 02:08:07;;;;;;;;;;;17.50;1.00;;;;;;5029451;28;20287;-62
2021/07/19 02:10:32;;;;;;;;;;;17.40;1.00;;;;;;5029339;28;20010;-63
2021/07/19 02:12:59;;;;;;;;;;;17.50;1.00;;;;;;5028012;28;19909;-61
2021/07/19 02:15:25;;;;;;;;;;;17.60;1.00;;;;;;5028750;28;19921;-62
2021/07/19 02:17:54;;;;;;;;;;;17.50;1.00;;;;;;5027513;28;20039;-62
2021/07/19 02:20:20;;;;;;;;;;;17.40;1.00;;;;;;5053709;28;19999;-62
2021/07/19 02:22:46;;;;;;;;;;;17.40;1.00;;;;;;5068538;28;19917;-63
2021/07/19 02:25:13;;;;;;;;;;;17.40;1.00;;;;;;5059072;28;20385;-61
2021/07/19 02:27:40;;;;;;;;;;;17.30;1.00;;;;;;5047113;28;19936;-62
2021/07/19 02:30:07;;;;;;;;;;;17.30;1.00;;;;;;5047948;28;20344;-62
2021/07/19 02:32:34;;;;;;;;;;;17.20;1.00;;;;;;5049775;28;19920;-59
2021/07/19 02:34:59;;;;;;;;;;;17.20;1.00;;;;;;5067986;28;20316;-59
2021/07/19 02:37:25;;;;;;;;;;;17.20;1.00;;;;;;5067671;28;20353;-62
2021/07/19 02:39:51;;;;;;;;;;;17.10;1.00;;;;;;5068002;28;19962;-61
2021/07/19 02:42:16;;;;;;;;;;;17.10;1.00;;;;;;5067563;28;19934;-60
2021/07/19 02:44:42;;;;;;;;;;;17.10;1.00;;;;;;5067817;28;19908;-62
2021/07/19 02:47:08;;;;;;;;;;;17.10;1.00;;;;;;5067610;28;19940;-62
2021/07/19 02:49:34;;;;;;;;;;;17.10;1.00;;;;;;5066931;28;19915;-60
2021/07/19 02:52:01;;;;;;;;;;;17.00;1.00;;;;;;5049637;28;19931;-61
2021/07/19 02:54:27;;;;;;;;;;;17.00;1.00;;;;;;5067798;28;19965;-61
2021/07/19 02:56:53;;;;;;;;;;;17.00;1.00;;;;;;5068729;28;19908;-61
2021/07/19 02:59:19;;;;;;;;;;;17.00;1.00;;;;;;5049123;28;19909;-62
2021/07/19 03:01:45;;;;;;;;;;;17.00;1.00;;;;;;5058959;28;19942;-62
2021/07/19 03:04:11;;;;;;;;;;;17.00;1.00;;;;;;5046750;28;20326;-61
2021/07/19 03:06:38;;;;;;;;;;;17.00;1.00;;;;;;5047798;28;19908;-61
2021/07/19 03:09:04;;;;;;;;;;;16.90;1.00;;;;;;5047577;28;19978;-62
2021/07/19 03:11:30;;;;;;;;;;;16.90;1.00;;;;;;5052276;28;20388;-60
2021/07/19 03:13:59;;;;;;;;;;;16.90;1.00;;;;;;5050495;28;19952;-60
2021/07/19 03:16:25;;;;;;;;;;;16.80;1.00;;;;;;5050653;28;20398;-59
2021/07/19 03:18:52;;;;;;;;;;;16.80;1.00;;;;;;5050113;28;19958;-61
2021/07/19 03:21:18;;;;;;;;;;;16.80;1.00;;;;;;5051691;28;20325;-61
2021/07/19 03:23:44;;;;;;;;;;;16.80;1.00;;;;;;5051480;28;20273;-61
2021/07/19 03:26:10;;;;;;;;;;;16.80;1.00;;;;;;5050770;28;19912;-61
2021/07/19 03:28:36;;;;;;;;;;;16.80;1.00;;;;;;5049307;28;19916;-62
2021/07/19 03:31:02;;;;;;;;;;;16.80;1.00;;;;;;5049728;28;19913;-62
2021/07/19 03:33:28;;;;;;;;;;;16.80;1.00;;;;;;5059952;28;19908;-60
2021/07/19 03:35:54;;;;;;;;;;;16.70;1.00;;;;;;5071028;28;20348;-60
2021/07/19 03:38:19;;;;;;;;;;;16.70;1.00;;;;;;5070564;28;19909;-62
2021/07/19 03:40:45;;;;;;;;;;;16.70;1.00;;;;;;5058540;28;20487;-62
2021/07/19 03:43:11;;;;;;;;;;;16.70;1.00;;;;;;5038877;28;20369;-62
2021/07/19 03:45:37;;;;;;;;;;;16.70;1.00;;;;;;5030887;28;20289;-62
2021/07/19 03:48:03;;;;;;;;;;;16.70;1.00;;;;;;5030585;28;19913;-62
2021/07/19 03:50:32;;;;;;;;;;;16.80;1.00;;;;;;5030668;28;20027;-59
2021/07/19 03:52:59;;;;;;;;;;;16.80;1.00;;;;;;5031259;28;19929;-61
2021/07/19 03:55:24;;;;;;;;;;;16.80;1.00;;;;;;5031274;28;20262;-61
2021/07/19 03:57:51;;;;;;;;;;;16.80;1.00;;;;;;5029312;28;19909;-62
2021/07/19 04:00:18;;;;;;;;;;;16.80;1.00;;;;;;5030477;28;19917;-62
2021/07/19 04:02:45;;;;;;;;;;;16.90;1.00;;;;;;5030537;28;19956;-62
2021/07/19 04:05:15;;;;;;;;;;;16.90;1.00;;;;;;5046170;28;19931;-61
2021/07/19 04:07:42;;;;;;;;;;;17.00;1.00;;;;;;5050290;28;20288;-62
2021/07/19 04:10:09;;;;;;;;;;;17.10;1.00;;;;;;5050956;28;19916;-61
2021/07/19 04:12:35;;;;;;;;;;;17.30;1.00;;;;;;5053513;28;20031;-62
2021/07/19 04:15:01;;;;;;;;;;;17.40;1.00;;;;;;5056876;28;20300;-62
2021/07/19 04:17:26;;;;;;;;;;;17.50;1.00;;;;;;5058090;28;19930;-62
2021/07/19 04:19:52;;;;;;;;;;;17.50;1.00;;;;;;5055397;28;20018;-62
2021/07/19 04:22:19;;;;;;;;;;;17.60;1.00;;;;;;5051416;28;19909;-62
2021/07/19 04:24:44;;;;;;;;;;;17.60;1.00;;;;;;5050730;28;19912;-62
2021/07/19 04:27:11;;;;;;;;;;;17.70;1.00;;;;;;5049743;28;20340;-62
2021/07/19 04:29:37;;;;;;;;;;;17.80;1.00;;;;;;5049648;28;20327;-63
2021/07/19 04:32:03;;;;;;;;;;;17.90;1.00;;;;;;5050777;28;19956;-63
2021/07/19 04:34:29;;;;;;;;;;;18.10;1.00;;;;;;5067071;28;19919;-63
2021/07/19 04:37:05;;;;;;;;;;;18.40;1.00;;;;;;5056572;28;19977;-62
2021/07/19 04:39:31;;;;;;;;;;;18.80;1.00;;;;;;5047832;28;19909;-63
2021/07/19 04:41:56;;;;;;;;;;;19.40;99.90;;;;;;5048716;28;19977;-62
2021/07/19 04:44:22;;;;;;;;;;;19.90;99.90;;;;;;5027862;28;19913;-63
2021/07/19 04:46:50;;;;;;;;;;;20.40;1.00;;;;;;5030497;28;20430;-62
2021/07/19 04:49:18;;;;;;;;;;;20.80;29.30;;;;;;5030676;28;19942;-63
2021/07/19 04:51:45;;;;;;;;;;;21.20;99.90;;;;;;5050147;28;20331;-61
2021/07/19 04:54:11;;;;;;;;;;;21.60;1.00;;;;;;5049819;28;20325;-61
2021/07/19 04:56:37;;;;;;;;;;;22.00;99.90;;;;;;5049948;28;19964;-62
2021/07/19 04:59:03;;;;;;;;;;;22.40;99.90;;;;;;5048329;28;19915;-62
2021/07/19 05:01:29;;;;;;;;;;;22.80;1.00;;;;;;5047423;28;19947;-62
2021/07/19 05:03:55;;;;;;;;;;;23.30;1.00;;;;;;5047463;28;19921;-62
2021/07/19 05:06:22;;;;;;;;;;;23.80;1.00;;;;;;5047377;28;19913;-64
2021/07/19 05:08:48;;;;;;;;;;;24.20;1.00;;;;;;5045762;28;19963;-63
2021/07/19 05:11:14;;;;;;;;;;;24.50;1.00;;;;;;5046446;28;20324;-65
2021/07/19 05:13:40;;;;;;;;;;;25.00;1.00;;;;;;5045880;28;20000;-64
2021/07/19 05:16:06;;;;;;;;;;;25.40;1.00;;;;;;5047419;28;20399;-64
2021/07/19 05:18:32;;;;;;;;;;;26.00;99.90;;;;;;5047696;28;19916;-65
2021/07/19 05:20:57;;;;;;;;;;;26.30;99.90;;;;;;5050759;28;19982;-63
2021/07/19 05:23:24;;;;;;;;;;;26.80;99.90;;;;;;5041433;28;20011;-62
2021/07/19 05:25:50;;;;;;;;;;;27.10;99.90;;;;;;5041794;28;19993;-63
2021/07/19 05:28:16;;;;;;;;;;;27.30;99.90;;;;;;5035418;28;20349;-61
2021/07/19 05:30:42;;;;;;;;;;;27.90;99.90;;;;;;5046846;28;20000;-64
2021/07/19 05:33:08;;;;;;;;;;;28.30;99.90;;;;;;5052003;28;20242;-62
2021/07/19 05:35:34;;;;;;;;;;;28.70;99.90;;;;;;5066190;28;19920;-62
2021/07/19 05:38:00;;;;;;;;;;;29.10;99.90;;;;;;5047384;28;20451;-61
2021/07/19 05:40:25;;;;;;;;;;;29.40;99.90;;;;;;5066810;28;19948;-63
2021/07/19 05:42:51;;;;;;;;;;;29.90;99.90;;;;;;5066161;28;19916;-62
2021/07/19 05:45:17;;;;;;;;;;;30.20;99.90;;;;;;5065229;28;19992;-62
2021/07/19 05:47:43;;;;;;;;;;;30.40;99.90;;;;;;5065346;28;19924;-61
2021/07/19 05:50:09;;;;;;;;;;;30.50;99.90;;;;;;5065512;28;20373;-62
2021/07/19 05:52:35;;;;;;;;;;;30.80;99.90;;;;;;5065642;28;19913;-61
2021/07/19 05:55:01;;;;;;;;;;;31.20;99.90;;;;;;5065624;28;19908;-61
2021/07/19 05:57:27;;;;;;;;;;;31.60;99.90;;;;;;5045928;28;19958;-60
2021/07/19 05:59:56;;;;;;;;;;;32.20;99.90;;;;;;5065235;28;20413;-62
2021/07/19 06:02:25;;;;;;;;;;;32.60;99.90;;;;;;5065677;28;19936;-63
2021/07/19 06:04:50;;;;;;;;;;;33.40;99.90;;;;;;5051924;28;20003;-63
2021/07/19 06:07:16;;;;;;;;;;;33.70;99.90;;;;;;5033494;28;20291;-63
2021/07/19 06:09:41;;;;;;;;;;;34.20;99.90;;;;;;5026099;28;19909;-63
2021/07/19 06:12:07;;;;;;;;;;;34.80;99.90;;;;;;5030265;28;20330;-63
2021/07/19 06:14:32;;;;;;;;;;;35.20;99.90;;;;;;5044621;28;19962;-62
2021/07/19 06:16:58;;;;;;;;;;;35.00;99.90;;;;;;5045909;28;20003;-62
2021/07/19 06:19:24;;;;;;;;;;;35.10;99.90;;;;;;5044450;28;19917;-63
2021/07/19 06:21:49;;;;;;;;;;;35.20;99.90;;;;;;5045870;28;20270;-60
2021/07/19 06:24:15;;;;;;;;;;;36.10;99.90;;;;;;5045631;28;19944;-62
2021/07/19 06:26:41;;;;;;;;;;;36.50;99.90;;;;;;5045690;28;19921;-63
2021/07/19 06:29:06;;;;;;;;;;;36.40;99.90;;;;;;5043674;28;19908;-62
2021/07/19 06:31:32;;;;;;;;;;;36.60;99.90;;;;;;5045197;28;20069;-64
2021/07/19 06:33:57;;;;;;;;;;;36.70;99.90;;;;;;5057739;28;20041;-63
2021/07/19 06:36:23;;;;;;;;;;;36.60;99.90;;;;;;5065124;28;19918;-63
2021/07/19 06:38:49;;;;;;;;;;;36.90;99.90;;;;;;5065010;28;20292;-63
2021/07/19 06:41:14;;;;;;;;;;;37.30;99.90;;;;;;5066360;28;19928;-63
2021/07/19 06:43:40;;;;;;;;;;;37.60;99.90;;;;;;5068717;28;19912;-62
2021/07/19 06:46:06;;;;;;;;;;;37.50;99.90;;;;;;5071953;28;19931;-63
2021/07/19 06:48:31;;;;;;;;;;;36.90;99.90;;;;;;5071052;28;20289;-61
2021/07/19 06:50:57;;;;;;;;;;;36.80;99.90;;;;;;5072514;28;19915;-63
2021/07/19 06:53:22;;;;;;;;;;;36.80;99.90;;;;;;5052413;28;20106;-60
2021/07/19 06:55:48;;;;;;;;;;;36.90;99.90;;;;;;5051379;28;19913;-62
2021/07/19 06:58:13;;;;;;;;;;;37.50;99.90;;;;;;5049901;28;19967;-62
2021/07/19 07:00:39;;;;;;;;;;;37.40;99.90;;;;;;5050579;28;19920;-62
2021/07/19 07:03:04;;;;;;;;;;;37.80;99.90;;;;;;5051476;28;19929;-62
2021/07/19 07:05:30;;;;;;;;;;;37.50;99.90;;;;;;5050716;28;19964;-62
2021/07/19 07:07:55;;;;;;;;;;;37.50;99.90;;;;;;5047630;28;19975;-62
2021/07/19 07:10:21;;;;;;;;;;;38.20;99.90;;;;;;5051175;28;19909;-62
2021/07/19 07:12:47;;;;;;;;;;;38.00;99.90;;;;;;5050426;28;19956;-61
2021/07/19 07:15:13;;;;;;;;;;;38.40;99.90;;;;;;5031795;28;20368;-61
2021/07/19 07:17:39;;;;;;;;;;;38.70;99.90;;;;;;5049978;28;20417;-62
2021/07/19 07:20:05;;;;;;;;;;;39.10;99.90;;;;;;5050209;28;19909;-62
2021/07/19 07:22:30;;;;;;;;;;;39.70;99.90;;;;;;5051316;28;19917;-62
2021/07/19 07:24:56;;;;;;;;;;;40.60;99.90;;;;;;5049554;28;20265;-62
2021/07/19 07:27:23;;;;;;;;;;;41.20;99.90;;;;;;5049145;28;19981;-61
2021/07/19 07:29:49;;;;;;;;;;;41.60;98.60;;;;;;5050177;28;20399;-62
2021/07/19 07:32:14;;;;;;;;;;;41.50;95.90;;;;;;5050652;28;19920;-62
2021/07/19 07:34:41;;;;;;;;;;;42.10;93.70;;;;;;5051445;28;20035;-62
2021/07/19 07:37:06;;;;;;;;;;;42.10;91.50;;;;;;5051010;28;19991;-62
2021/07/19 07:39:32;;;;;;;;;;;42.50;88.20;;;;;;5031279;28;20015;-65
2021/07/19 07:41:58;;;;;;;;;;;43.00;84.30;;;;;;5043745;28;20317;-61
2021/07/19 07:44:23;;;;;;;;;;;43.30;77.60;;;;;;5047643;28;19920;-62
2021/07/19 07:46:49;;;;;;;;;;;43.40;71.40;;;;;;5050820;28;19928;-61
2021/07/19 07:49:15;;;;;;;;;;;43.30;67.30;;;;;;5048745;28;20332;-61
2021/07/19 07:51:41;;;;;;;;;;;42.70;61.10;;;;;;5050060;28;20261;-61
2021/07/19 07:54:06;;;;;;;;;;;42.70;59.00;;;;;;5050284;28;20262;-61
2021/07/19 07:56:32;;;;;;;;;;;43.10;56.50;;;;;;5049611;28;19959;-61
2021/07/19 07:58:57;;;;;;;;;;;43.90;54.50;;;;;;5049136;28;19917;-61
2021/07/19 08:01:23;;;;;;;;;;;43.20;50.20;;;;;;5051247;28;19909;-61
2021/07/19 08:03:49;;;;;;;;;;;43.60;49.30;;;;;;5032219;28;19912;-61
2021/07/19 08:06:14;;;;;;;;;;;44.50;48.10;;;;;;5051188;28;20392;-61
2021/07/19 08:08:40;;;;;;;;;;;45.20;46.40;;;;;;5050247;28;19927;-61
2021/07/19 08:11:06;;;;;;;;;;;45.80;44.20;;;;;;5051405;28;19912;-61
2021/07/19 08:13:31;;;;;;;;;;;46.40;41.60;;;;;;5049532;28;20274;-61
2021/07/19 08:15:57;;;;;;;;;;;46.50;37.90;;;;;;5049245;28;19960;-61
2021/07/19 08:18:22;;;;;;;;;;;46.70;34.40;;;;;;5048780;28;19999;-60
2021/07/19 08:20:48;;;;;;;;;;;46.40;30.40;;;;;;5049701;28;19925;-61
2021/07/19 08:23:14;;;;;;;;;;;46.80;29.50;;;;;;5049409;28;20389;-62
2021/07/19 08:25:39;;;;;;;;;;;47.20;27.10;;;;;;5049504;28;19909;-61
2021/07/19 08:28:05;;;;;;;;;;;46.10;23.80;;;;;;5048361;28;20423;-61
2021/07/19 08:30:31;;;;;;;;;;;45.50;21.10;;;;;;5050005;28;19916;-63
2021/07/19 08:32:58;;;;;;;;;;;44.80;18.70;;;;;;5055206;28;20344;-62
2021/07/19 08:35:24;;;;;;;;;;;44.60;17.90;;;;;;5069958;28;20007;-62
2021/07/19 08:37:49;;;;;;;;;;;44.80;16.80;;;;;;5069716;28;19967;-63
2021/07/19 08:40:16;;;;;;;;;;;45.70;16.60;;;;;;5069832;28;19962;-63
2021/07/19 08:42:41;;;;;;;;;;;46.60;16.40;;;;;;5069248;28;19908;-63
2021/07/19 08:45:08;;;;;;;;;;;46.60;14.10;;;;;;5069632;28;19908;-63
2021/07/19 08:47:35;;;;;;;;;;;45.00;10.30;;;;;;5069633;28;19919;-63
2021/07/19 08:50:01;;;;;;;;;;;45.10;10.20;;;;;;5069498;28;19916;-62
2021/07/19 08:52:26;;;;;;;;;;;44.40;9.00;;;;;;5070832;28;20129;-62
2021/07/19 08:54:52;;;;;;;;;;;44.00;9.50;;;;;;5070228;28;19908;-63
2021/07/19 08:57:19;;;;;;;;;;;44.60;9.80;;;;;;5069342;28;20385;-62
2021/07/19 08:59:48;;;;;;;;;;;44.70;9.50;;;;;;5069622;28;19916;-63
2021/07/19 09:02:13;;;;;;;;;;;45.60;10.20;;;;;;5069991;28;20007;-63
2021/07/19 09:04:39;;;;;;;;;;;46.50;10.80;;;;;;5058155;28;20000;-63
2021/07/19 09:07:04;;;;;;;;;;;46.80;10.30;;;;;;5039085;28;20245;-63
2021/07/19 09:09:31;;;;;;;;;;;46.50;8.20;;;;;;5029647;28;19909;-63
2021/07/19 09:11:57;;;;;;;;;;;46.70;7.60;;;;;;5030162;28;19972;-62
2021/07/19 09:14:24;;;;;;;;;;;47.50;7.60;;;;;;5028121;28;19913;-63
2021/07/19 09:16:49;;;;;;;;;;;48.70;8.80;;;;;;5030428;28;20342;-63
2021/07/19 09:19:17;;;;;;;;;;;49.50;8.20;;;;;;5036481;28;20010;-63
2021/07/19 09:21:44;;;;;;;;;;;50.40;7.90;;;;;;5070020;28;19908;-63
2021/07/19 09:24:11;;;;;;;;;;;50.80;7.80;;;;;;5068399;28;20011;-62
2021/07/19 09:26:37;;;;;;;;;;;50.20;4.10;;;;;;5049701;28;20417;-63
2021/07/19 09:29:05;;;;;;;;;;;48.30;1.00;;;;;;5029651;28;19939;-61
2021/07/19 09:31:31;;;;;;;;;;;44.80;1.70;;;;;;5049572;28;19988;-63
2021/07/19 09:33:58;;;;;;;;;;;41.70;1.00;;;;;;5061962;28;20337;-63
2021/07/19 09:36:27;;;;;;;;;;;39.90;1.00;;;;;;5069492;28;19909;-62
2021/07/19 09:39:06;;;;;;;;;;;40.20;1.00;;;;;;5069022;28;19947;-63
2021/07/19 09:41:32;;;;;;;;;;;40.60;1.00;;;;;;5069672;28;20439;-60
2021/07/19 09:43:57;;;;;;;;;;;40.40;1.00;;;;;;5068815;28;19955;-63
2021/07/19 09:46:30;;;;;;;;;;;39.30;8.30;;;;;;5069204;28;19913;-62
2021/07/19 09:48:56;;;;;;;;;;;38.50;1.00;;;;;;5068257;28;20004;-62
2021/07/19 09:51:32;;;;;;;;;;;39.10;2.10;;;;;;5069390;28;20311;-60
2021/07/19 09:54:11;;;;;;;;;;;39.40;2.90;;;;;;5068896;28;19908;-62
2021/07/19 09:56:37;;;;;;;;;;;40.90;5.40;;;;;;5069011;28;20221;-63
2021/07/19 09:59:07;;;;;;;;;;;41.10;6.40;;;;;;5067673;28;20435;-62
2021/07/19 10:01:51;;;;;;;;;;;40.90;7.30;;;;;;5069274;28;20003;-59
2021/07/19 10:04:23;;;;;;;;;;;41.50;8.50;;;;;;5060164;28;19932;-60
2021/07/19 10:06:50;;;;;;;;;;;42.80;9.60;;;;;;5041288;28;19956;-61
2021/07/19 10:09:16;;;;;;;;;;;42.80;7.60;;;;;;5028132;28;19944;-64
2021/07/19 10:11:45;;;;;;;;;;;43.50;7.80;;;;;;5011648;28;19913;-63
2021/07/19 10:14:12;;;;;;;;;;;43.70;7.80;;;;;;5028000;28;19978;-62
2021/07/19 10:16:37;;;;;;;;;;;42.70;5.20;;;;;;5028911;28;19967;-61
2021/07/19 10:19:04;;;;;;;;;;;42.70;4.90;;;;;;5031673;28;19940;-63
2021/07/19 10:21:32;;;;;;;;;;;42.80;5.20;;;;;;5069091;28;19908;-62
2021/07/19 10:24:05;;;;;;;;;;;44.40;7.40;;;;;;5069011;28;19947;-61
2021/07/19 10:26:30;;;;;;;;;;;45.60;99.90;;;;;;5029386;28;19951;-62
2021/07/19 10:28:58;;;;;;;;;;;45.70;99.90;;;;;;5026594;28;20530;-61
2021/07/19 10:31:24;;;;;;;;;;;43.90;99.90;;;;;;5028932;28;19917;-63
2021/07/19 10:33:50;;;;;;;;;;;;;;;;;;5053096;28;20370;-62
2021/07/19 10:36:21;;;;;;;;;;;43.10;1.00;;;;;;5068733;28;19919;-61
2021/07/19 10:38:47;;;;;;;;;;;43.20;99.90;;;;;;5067951;28;20320;-63
2021/07/19 10:41:13;;;;;;;;;;;43.80;99.90;;;;;;5068544;28;19924;-62
2021/07/19 10:43:39;;;;;;;;;;;44.50;99.90;;;;;;5068114;28;19908;-63
2021/07/19 10:46:09;;;;;;;;;;;45.50;99.90;;;;;;5068328;28;19917;-61
2021/07/19 10:48:34;;;;;;;;;;;44.40;99.90;;;;;;5067819;28;20015;-60
2021/07/19 10:51:01;;;;;;;;;;;42.00;99.90;;;;;;5068417;28;19998;-62
2021/07/19 10:53:27;;;;;;;;;;;41.10;99.90;;;;;;5068725;28;19912;-61
2021/07/19 10:56:00;;;;;;;;;;;40.90;99.90;;;;;;5068548;28;20357;-62
2021/07/19 10:58:35;;;;;;;;;;;41.80;99.90;;;;;;5067264;28;19909;-64
2021/07/19 11:01:00;;;;;;;;;;;42.30;99.90;;;;;;5068143;28;19986;-63
2021/07/19 11:03:35;;;;;;;;;;;41.40;99.90;;;;;;5066720;28;19920;-62
2021/07/19 11:06:01;;;;;;;;;;;40.30;99.90;;;;;;5047278;28;20233;-61
2021/07/19 11:08:26;;;;;;;;;;;39.80;99.90;;;;;;5028038;28;19990;-62
2021/07/19 11:10:53;;;;;;;;;;;39.30;8.90;;;;;;5028509;28;19909;-63
2021/07/19 11:13:25;;;;;;;;;;;39.80;4.60;;;;;;5027432;28;19931;-62
2021/07/19 11:15:51;;;;;;;;;;;39.60;4.60;;;;;;5028181;28;20335;-61
2021/07/19 11:18:18;;;;;;;;;;;38.20;4.30;;;;;;5027777;28;19956;-61
2021/07/19 11:20:44;;;;;;;;;;;37.60;5.10;;;;;;5060465;28;19912;-61
2021/07/19 11:23:10;;;;;;;;;;;37.50;7.20;;;;;;5068500;28;19912;-62
2021/07/19 11:25:41;;;;;;;;;;;37.60;8.40;;;;;;5055606;28;20230;-61
2021/07/19 11:28:17;;;;;;;;;;;37.70;10.60;;;;;;5047043;28;20381;-63
2021/07/19 11:30:42;;;;;;;;;;;37.80;11.80;;;;;;5049489;28;19916;-59
2021/07/19 11:33:14;;;;;;;;;;;38.20;13.60;;;;;;5058093;28;19908;-63
2021/07/19 11:35:41;;;;;;;;;;;38.90;15.70;;;;;;5071539;28;19912;-61
2021/07/19 11:38:13;;;;;;;;;;;39.70;17.50;;;;;;5071517;28;19909;-62
2021/07/19 11:40:40;;;;;;;;;;;39.80;18.40;;;;;;5071761;28;19959;-60
2021/07/19 11:43:18;;;;;;;;;;;39.30;19.40;;;;;;5070612;28;19912;-62
2021/07/19 11:45:48;;;;;;;;;;;38.10;19.70;;;;;;5071345;28;20511;-60
2021/07/19 11:48:14;;;;;;;;;;;36.70;20.20;;;;;;5071162;28;19962;-61
2021/07/19 11:50:39;;;;;;;;;;;36.20;24.00;;;;;;5053210;28;19909;-63
2021/07/19 11:53:05;;;;;;;;;;;35.70;29.20;;;;;;5071570;28;19983;-63
2021/07/19 11:55:30;;;;;;;;;;;34.90;28.20;;;;;;5070906;28;19916;-64
2021/07/19 11:58:01;;;;;;;;;;;34.20;32.00;;;;;;5069831;28;19993;-62
2021/07/19 12:00:27;;;;;;;;;;;34.30;40.50;;;;;;5070855;28;20307;-64
2021/07/19 12:02:56;;;;;;;;;;;35.10;67.60;;;;;;5071272;28;19909;-63
2021/07/19 12:05:22;;;;;;;;;;;35.90;64.40;;;;;;5052758;28;20336;-63
2021/07/19 12:07:48;;;;;;;;;;;36.20;76.40;;;;;;5034737;28;19913;-63
2021/07/19 12:10:15;;;;;;;;;;;36.20;87.30;;;;;;5031177;28;20321;-61
2021/07/19 12:12:43;;;;;;;;;;;36.20;94.60;;;;;;5012703;28;19909;-62
2021/07/19 12:15:08;;;;;;;;;;;36.40;99.90;;;;;;5030659;28;20353;-62
2021/07/19 12:17:36;;;;;;;;;;;36.40;99.90;;;;;;5030226;28;20012;-62
2021/07/19 12:20:03;;;;;;;;;;;35.80;99.90;;;;;;5050503;28;19951;-61
2021/07/19 12:22:32;;;;;;;;;;;35.20;99.90;;;;;;5071308;28;20012;-61
2021/07/19 12:24:58;;;;;;;;;;;34.40;99.90;;;;;;5063340;28;19913;-62
2021/07/19 12:27:24;;;;;;;;;;;33.70;99.90;;;;;;5049350;28;19920;-62
2021/07/19 12:29:50;;;;;;;;;;;33.50;99.90;;;;;;5050289;28;19913;-60
2021/07/19 12:32:15;;;;;;;;;;;33.50;99.90;;;;;;5050744;28;19928;-63
2021/07/19 12:34:42;;;;;;;;;;;33.40;99.90;;;;;;5069278;28;20018;-62
2021/07/19 12:37:12;;;;;;;;;;;33.60;99.90;;;;;;5071159;28;19948;-63
2021/07/19 12:39:39;;;;;;;;;;;33.60;99.90;;;;;;5069732;28;19908;-62
2021/07/19 12:42:19;;;;;;;;;;;33.40;99.90;;;;;;5070532;28;20171;-62
2021/07/19 12:44:48;;;;;;;;;;;33.20;99.90;;;;;;5070556;28;20395;-62
2021/07/19 12:47:18;;;;;;;;;;;32.80;99.90;;;;;;5070215;28;19928;-65
2021/07/19 12:49:43;;;;;;;;;;;32.20;99.90;;;;;;5069526;28;20004;-62
2021/07/19 12:52:16;;;;;;;;;;;31.80;99.90;;;;;;5070413;28;20387;-61
2021/07/19 12:54:52;;;;;;;;;;;31.90;99.90;;;;;;5070580;28;19928;-63
2021/07/19 12:57:18;;;;;;;;;;;31.90;99.90;;;;;;5069337;28;19951;-62
2021/07/19 12:59:47;;;;;;;;;;;31.70;99.90;;;;;;5069127;28;19913;-63
2021/07/19 13:02:15;;;;;;;;;;;31.70;99.90;;;;;;5070420;28;20365;-63
2021/07/19 13:04:40;;;;;;;;;;;31.50;99.90;;;;;;5057829;28;19932;-61
2021/07/19 13:07:06;;;;;;;;;;;31.20;99.90;;;;;;5039941;28;19909;-63
2021/07/19 13:09:33;;;;;;;;;;;31.10;99.90;;;;;;5029376;28;19910;-61
2021/07/19 13:12:02;;;;;;;;;;;31.10;99.90;;;;;;5029793;28;20006;-60
2021/07/19 13:14:38;;;;;;;;;;;31.10;99.90;;;;;;5029070;28;19932;-62
2021/07/19 13:17:03;;;;;;;;;;;31.10;99.90;;;;;;5030600;28;19928;-61
2021/07/19 13:19:33;;;;;;;;;;;31.00;61.10;;;;;;5040330;28;20405;-62
2021/07/19 13:21:59;;;;;;;;;;;30.90;76.90;;;;;;5069901;28;19974;-61
2021/07/19 13:24:25;;;;;;;;;;;31.00;78.30;;;;;;5066104;28;20303;-61
2021/07/19 13:26:51;;;;;;;;;;;31.00;79.50;;;;;;5049716;28;19913;-62
2021/07/19 13:29:17;;;;;;;;;;;31.30;80.80;;;;;;5047519;28;19924;-61
2021/07/19 13:31:42;;;;;;;;;;;31.30;78.20;;;;;;5049611;28;19913;-61
2021/07/19 13:34:15;;;;;;;;;;;31.20;77.40;;;;;;5063715;28;19923;-61
2021/07/19 13:36:45;;;;;;;;;;;31.60;80.50;;;;;;5069531;28;20250;-60
2021/07/19 13:39:10;;;;;;;;;;;31.40;80.70;;;;;;5067942;28;19919;-60
2021/07/19 13:41:36;;;;;;;;;;;31.30;81.10;;;;;;5069583;28;19909;-60
2021/07/19 13:44:02;;;;;;;;;;;31.40;82.60;;;;;;5067971;28;20464;-62
2021/07/19 13:46:28;;;;;;;;;;;31.50;83.30;;;;;;5068515;28;19908;-59
2021/07/19 13:48:54;;;;;;;;;;;31.70;84.20;;;;;;5068034;28;19912;-63
2021/07/19 13:51:19;;;;;;;;;;;31.70;81.50;;;;;;5069065;28;20062;-63
2021/07/19 13:53:45;;;;;;;;;;;31.20;79.60;;;;;;5067809;28;20283;-63
2021/07/19 13:56:11;;;;;;;;;;;30.70;79.90;;;;;;5068716;28;19936;-62
2021/07/19 13:58:42;;;;;;;;;;;30.60;80.20;;;;;;5067092;28;20346;-58
2021/07/19 14:01:08;;;;;;;;;;;30.60;81.70;;;;;;5068747;28;20413;-61
2021/07/19 14:03:34;;;;;;;;;;;30.70;81.90;;;;;;5066167;28;19920;-62
2021/07/19 14:05:59;;;;;;;;;;;30.70;84.80;;;;;;5047973;28;20273;-64
2021/07/19 14:08:25;;;;;;;;;;;30.70;86.10;;;;;;5048062;28;19923;-63
2021/07/19 14:10:51;;;;;;;;;;;30.80;88.10;;;;;;5032693;28;20287;-63
2021/07/19 14:13:16;;;;;;;;;;;30.70;87.40;;;;;;5028435;28;19913;-63
2021/07/19 14:15:42;;;;;;;;;;;30.80;89.20;;;;;;5029021;28;19953;-61
2021/07/19 14:18:07;;;;;;;;;;;30.90;90.20;;;;;;5028109;28;19913;-62
2021/07/19 14:20:34;;;;;;;;;;;31.10;92.00;;;;;;5057370;28;19924;-62